createdAt,value
2023-04-18T00:00:52.439Z,26.68
2023-04-18T00:01:52.583Z,26.67
2023-04-18T00:02:52.617Z,26.69
2023-04-18T00:03:52.761Z,26.69
2023-04-18T00:04:52.735Z,26.70
2023-04-18T00:05:52.517Z,26.66
2023-04-18T00:06:52.555Z,26.72
2023-04-18T00:07:52.556Z,26.70
2023-04-18T00:08:52.626Z,26.71
2023-04-18T00:09:52.593Z,26.71
2023-04-18T00:10:52.605Z,26.69
2023-04-18T00:11:52.641Z,26.69
2023-04-18T00:12:52.652Z,26.69
2023-04-18T00:13:52.666Z,26.69
2023-04-18T00:14:52.682Z,26.70
2023-04-18T00:15:52.703Z,26.68
2023-04-18T00:16:52.871Z,26.69
2023-04-18T00:17:52.792Z,26.69
2023-04-18T00:18:52.805Z,26.69
2023-04-18T00:19:52.787Z,26.67
2023-04-18T00:20:52.807Z,26.70
2023-04-18T00:21:52.815Z,26.73
2023-04-18T00:22:52.834Z,26.69
2023-04-18T00:23:52.872Z,26.70
2023-04-18T00:24:52.878Z,26.71
2023-04-18T00:25:52.890Z,26.71
2023-04-18T00:26:52.899Z,26.71
2023-04-18T00:27:52.924Z,26.71
2023-04-18T00:28:52.947Z,26.69
2023-04-18T00:29:52.991Z,26.70
2023-04-18T00:30:53.034Z,26.72
2023-04-18T00:31:53.025Z,26.70
2023-04-18T00:32:53.093Z,26.71
2023-04-18T00:33:53.072Z,26.70
2023-04-18T00:34:53.078Z,26.70
2023-04-18T00:35:53.108Z,26.69
2023-04-18T00:36:53.160Z,26.71
2023-04-18T00:37:53.193Z,26.70
2023-04-18T00:38:53.215Z,26.73
2023-04-18T00:39:53.250Z,26.73
2023-04-18T00:40:53.253Z,26.72
2023-04-18T00:41:53.282Z,26.73
2023-04-18T00:42:53.270Z,26.72
2023-04-18T00:43:53.456Z,26.73
2023-04-18T00:44:53.326Z,26.74
2023-04-18T00:45:53.393Z,26.72
2023-04-18T00:46:53.346Z,26.73
2023-04-18T00:47:53.391Z,26.72
2023-04-18T00:48:53.357Z,26.73
2023-04-18T00:49:53.383Z,26.73
2023-04-18T00:50:53.401Z,26.75
2023-04-18T00:51:53.416Z,26.72
2023-04-18T00:52:53.438Z,26.75
2023-04-18T00:53:53.460Z,26.73
2023-04-18T00:54:53.456Z,26.74
2023-04-18T00:55:53.472Z,26.72
2023-04-18T00:56:53.485Z,26.73
2023-04-18T00:57:53.519Z,26.74
2023-04-18T00:58:53.511Z,26.72
2023-04-18T00:59:53.540Z,26.72
2023-04-18T01:00:53.574Z,26.74
2023-04-18T01:01:53.769Z,26.75
2023-04-18T01:02:53.671Z,26.75
2023-04-18T01:03:53.669Z,26.74
2023-04-18T01:04:53.601Z,26.75
2023-04-18T01:05:53.607Z,26.74
2023-04-18T01:06:53.649Z,26.76
2023-04-18T01:07:53.643Z,26.74
2023-04-18T01:08:53.683Z,26.71
2023-04-18T01:09:53.683Z,26.75
2023-04-18T01:10:53.719Z,26.74
2023-04-18T01:11:53.727Z,26.74
2023-04-18T01:12:53.757Z,26.75
2023-04-18T01:13:53.754Z,26.73
2023-04-18T01:14:53.790Z,26.76
2023-04-18T01:15:53.853Z,26.75
2023-04-18T01:16:53.828Z,26.75
2023-04-18T01:17:53.850Z,26.75
2023-04-18T01:18:53.842Z,26.76
2023-04-18T01:19:53.874Z,26.75
2023-04-18T01:20:53.925Z,26.72
2023-04-18T01:21:53.885Z,26.74
2023-04-18T01:22:53.911Z,26.75
2023-04-18T01:23:53.928Z,26.76
2023-04-18T01:24:53.945Z,26.75
2023-04-18T01:25:53.952Z,26.75
2023-04-18T01:26:53.974Z,26.77
2023-04-18T01:27:53.987Z,26.75
2023-04-18T01:28:53.998Z,26.76
2023-04-18T01:29:54.037Z,26.76
2023-04-18T01:30:54.063Z,26.76
2023-04-18T01:31:54.056Z,26.77
2023-04-18T01:32:54.136Z,26.75
2023-04-18T01:33:54.100Z,26.75
2023-04-18T01:34:54.107Z,26.76
2023-04-18T01:35:54.135Z,26.77
2023-04-18T01:36:54.144Z,26.76
2023-04-18T01:37:54.169Z,26.76
2023-04-18T01:38:54.187Z,26.77
2023-04-18T01:39:54.222Z,26.77
2023-04-18T01:40:54.223Z,26.77
2023-04-18T01:41:54.270Z,26.76
2023-04-18T01:42:54.281Z,26.77
2023-04-18T01:43:54.287Z,26.79
2023-04-18T01:44:54.291Z,26.78
2023-04-18T01:45:54.321Z,26.77
2023-04-18T01:46:54.379Z,26.75
2023-04-18T01:47:54.384Z,26.79
2023-04-18T01:48:54.360Z,26.81
2023-04-18T01:49:54.420Z,26.78
2023-04-18T01:50:54.432Z,26.77
2023-04-18T01:51:54.412Z,26.77
2023-04-18T01:52:54.429Z,26.77
2023-04-18T01:53:54.457Z,26.77
2023-04-18T01:54:54.448Z,26.79
2023-04-18T01:55:54.474Z,26.77
2023-04-18T01:56:54.481Z,26.80
2023-04-18T01:57:54.523Z,26.77
2023-04-18T01:58:54.517Z,26.76
2023-04-18T01:59:54.526Z,26.78
2023-04-18T02:00:54.611Z,26.76
2023-04-18T02:01:54.687Z,26.77
2023-04-18T02:02:54.660Z,26.78
2023-04-18T02:03:54.696Z,26.78
2023-04-18T02:04:54.593Z,26.80
2023-04-18T02:05:54.636Z,26.78
2023-04-18T02:06:54.633Z,26.78
2023-04-18T02:07:54.642Z,26.79
2023-04-18T02:08:54.663Z,26.78
2023-04-18T02:09:54.667Z,26.78
2023-04-18T02:10:54.674Z,26.78
2023-04-18T02:11:54.692Z,26.79
2023-04-18T02:12:54.721Z,26.79
2023-04-18T02:13:54.759Z,26.77
2023-04-18T02:14:54.727Z,26.77
2023-04-18T02:15:54.753Z,26.80
2023-04-18T02:16:54.765Z,26.80
2023-04-18T02:17:54.866Z,26.78
2023-04-18T02:18:54.803Z,26.78
2023-04-18T02:19:54.800Z,26.77
2023-04-18T02:20:54.792Z,26.78
2023-04-18T02:21:54.811Z,26.79
2023-04-18T02:22:54.824Z,26.81
2023-04-18T02:23:54.829Z,26.80
2023-04-18T02:24:54.831Z,26.77
2023-04-18T02:25:54.869Z,26.78
2023-04-18T02:26:54.873Z,26.77
2023-04-18T02:27:54.904Z,26.78
2023-04-18T02:28:54.951Z,26.78
2023-04-18T02:29:54.942Z,26.78
2023-04-18T02:30:54.991Z,26.77
2023-04-18T02:31:55.023Z,26.79
2023-04-18T02:32:55.061Z,26.77
2023-04-18T02:33:55.041Z,26.79
2023-04-18T02:34:55.057Z,26.80
2023-04-18T02:35:55.054Z,26.79
2023-04-18T02:36:55.068Z,26.80
2023-04-18T02:37:55.094Z,26.79
2023-04-18T02:38:55.112Z,26.79
2023-04-18T02:39:55.136Z,26.80
2023-04-18T02:40:55.132Z,26.81
2023-04-18T02:41:55.135Z,26.82
2023-04-18T02:42:55.137Z,26.79
2023-04-18T02:43:55.168Z,26.81
2023-04-18T02:44:55.170Z,26.82
2023-04-18T02:45:55.192Z,26.83
2023-04-18T02:46:55.184Z,26.81
2023-04-18T02:47:56.671Z,26.79
2023-04-18T02:48:55.210Z,26.80
2023-04-18T02:49:55.216Z,26.82
2023-04-18T02:50:55.249Z,26.81
2023-04-18T02:51:55.218Z,26.81
2023-04-18T02:52:55.224Z,26.81
2023-04-18T02:53:55.251Z,26.81
2023-04-18T02:54:55.252Z,26.80
2023-04-18T02:55:55.258Z,26.80
2023-04-18T02:56:55.333Z,26.80
2023-04-18T02:57:55.294Z,26.82
2023-04-18T02:58:55.322Z,26.71
2023-04-18T02:59:55.355Z,26.54
2023-04-18T03:00:55.388Z,26.34
2023-04-18T03:01:55.447Z,26.34
2023-04-18T03:02:55.522Z,26.19
2023-04-18T03:03:55.441Z,25.90
2023-04-18T03:04:55.458Z,25.68
2023-04-18T03:05:55.472Z,25.58
2023-04-18T03:06:55.485Z,25.46
2023-04-18T03:07:55.522Z,25.39
2023-04-18T03:08:55.544Z,25.37
2023-04-18T03:09:55.592Z,25.29
2023-04-18T03:10:56.323Z,25.16
2023-04-18T03:11:55.669Z,25.14
2023-04-18T03:12:55.720Z,25.12
2023-04-18T03:13:55.762Z,25.03
2023-04-18T03:14:55.812Z,25.01
2023-04-18T03:15:55.846Z,25.01
2023-04-18T03:16:55.936Z,24.98
2023-04-18T03:17:55.957Z,24.96
2023-04-18T03:18:56.012Z,24.92
2023-04-18T03:19:56.065Z,24.90
2023-04-18T03:20:56.124Z,24.89
2023-04-18T03:21:56.184Z,24.81
2023-04-18T03:22:56.228Z,24.82
2023-04-18T03:23:56.298Z,24.79
2023-04-18T03:24:56.364Z,24.75
2023-04-18T03:25:56.416Z,24.75
2023-04-18T03:26:56.529Z,24.75
2023-04-18T03:27:56.535Z,24.71
2023-04-18T03:28:56.711Z,24.66
2023-04-18T03:29:56.672Z,24.67
2023-04-18T03:30:56.810Z,24.64
2023-04-18T03:31:56.810Z,24.64
2023-04-18T03:32:56.925Z,24.60
2023-04-18T03:33:56.932Z,24.62
2023-04-18T03:34:57.003Z,24.60
2023-04-18T03:35:57.177Z,24.59
2023-04-18T03:36:57.164Z,24.60
2023-04-18T03:37:57.247Z,24.59
2023-04-18T03:38:57.324Z,24.59
2023-04-18T03:39:57.397Z,24.52
2023-04-18T03:40:57.463Z,24.57
2023-04-18T03:41:57.589Z,24.51
2023-04-18T03:42:57.614Z,24.53
2023-04-18T03:43:57.705Z,24.53
2023-04-18T03:44:57.827Z,24.51
2023-04-18T03:45:57.892Z,24.52
2023-04-18T03:46:57.964Z,24.54
2023-04-18T03:47:58.166Z,24.57
2023-04-18T03:48:58.109Z,24.55
2023-04-18T03:49:58.195Z,24.51
2023-04-18T03:50:58.251Z,24.50
2023-04-18T03:51:58.327Z,24.52
2023-04-18T03:52:58.380Z,24.52
2023-04-18T03:53:58.439Z,24.49
2023-04-18T03:54:58.528Z,24.48
2023-04-18T03:55:58.621Z,24.48
2023-04-18T03:56:58.701Z,24.49
2023-04-18T03:57:58.783Z,24.47
2023-04-18T03:58:58.874Z,24.45
2023-04-18T03:59:58.951Z,24.44
2023-04-18T04:00:59.018Z,24.46
2023-04-18T04:01:59.225Z,24.45
2023-04-18T04:02:59.281Z,24.47
2023-04-18T04:03:59.406Z,24.43
2023-04-18T04:04:59.393Z,24.46
2023-04-18T04:05:59.399Z,24.48
2023-04-18T04:06:59.450Z,24.46
2023-04-18T04:07:59.521Z,24.49
2023-04-18T04:08:59.612Z,24.48
2023-04-18T04:09:59.675Z,24.49
2023-04-18T04:10:59.765Z,24.48
2023-04-18T04:11:59.821Z,24.47
2023-04-18T04:12:59.871Z,24.46
2023-04-18T04:13:59.937Z,24.46
2023-04-18T04:15:00.006Z,24.51
2023-04-18T04:16:00.145Z,24.51
2023-04-18T04:17:00.157Z,24.49
2023-04-18T04:18:00.254Z,24.54
2023-04-18T04:19:00.271Z,24.49
2023-04-18T04:20:00.346Z,24.46
2023-04-18T04:21:00.405Z,24.46
2023-04-18T04:22:00.466Z,24.45
2023-04-18T04:23:00.525Z,24.45
2023-04-18T04:24:00.599Z,24.50
2023-04-18T04:25:00.643Z,24.49
2023-04-18T04:26:00.712Z,24.46
2023-04-18T04:27:00.779Z,24.49
2023-04-18T04:28:00.858Z,24.48
2023-04-18T04:29:00.924Z,24.54
2023-04-18T04:30:00.989Z,24.51
2023-04-18T04:31:01.038Z,24.54
2023-04-18T04:32:01.171Z,24.54
2023-04-18T04:33:01.190Z,24.47
2023-04-18T04:34:01.197Z,24.49
2023-04-18T04:35:01.242Z,24.53
2023-04-18T04:36:01.351Z,24.54
2023-04-18T04:37:01.437Z,24.52
2023-04-18T04:38:01.473Z,24.52
2023-04-18T04:39:01.622Z,24.57
2023-04-18T04:40:01.590Z,24.57
2023-04-18T04:41:01.653Z,24.53
2023-04-18T04:42:01.720Z,24.57
2023-04-18T04:43:01.845Z,24.52
2023-04-18T04:44:01.958Z,24.56
2023-04-18T04:45:01.990Z,24.56
2023-04-18T04:46:02.052Z,24.56
2023-04-18T04:47:02.104Z,24.58
2023-04-18T04:48:02.285Z,24.56
2023-04-18T04:49:02.186Z,24.58
2023-04-18T04:50:02.264Z,24.58
2023-04-18T04:51:02.305Z,24.58
2023-04-18T04:52:02.361Z,24.62
2023-04-18T04:53:02.393Z,24.59
2023-04-18T04:54:02.422Z,24.61
2023-04-18T04:55:02.468Z,24.60
2023-04-18T04:56:02.514Z,24.60
2023-04-18T04:57:02.566Z,24.62
2023-04-18T04:58:02.642Z,24.62
2023-04-18T04:59:02.705Z,24.64
2023-04-18T05:00:02.768Z,24.65
2023-04-18T05:01:02.935Z,24.64
2023-04-18T05:02:03.063Z,24.61
2023-04-18T05:03:03.119Z,24.60
2023-04-18T05:04:03.019Z,24.61
2023-04-18T05:05:03.007Z,24.59
2023-04-18T05:06:03.026Z,24.61
2023-04-18T05:07:03.063Z,24.60
2023-04-18T05:08:03.116Z,24.56
2023-04-18T05:09:03.140Z,24.58
2023-04-18T05:10:03.177Z,24.62
2023-04-18T05:11:03.224Z,24.62
2023-04-18T05:12:03.237Z,24.60
2023-04-18T05:13:03.268Z,24.58
2023-04-18T05:14:03.307Z,24.59
2023-04-18T05:15:03.345Z,24.61
2023-04-18T05:16:03.373Z,24.63
2023-04-18T05:17:03.458Z,24.61
2023-04-18T05:18:03.462Z,24.62
2023-04-18T05:19:03.436Z,24.62
2023-04-18T05:20:03.469Z,24.65
2023-04-18T05:21:03.508Z,24.61
2023-04-18T05:22:03.531Z,24.62
2023-04-18T05:23:03.563Z,24.60
2023-04-18T05:24:03.575Z,24.62
2023-04-18T05:25:03.597Z,24.61
2023-04-18T05:26:03.629Z,24.57
2023-04-18T05:27:03.690Z,24.58
2023-04-18T05:28:03.719Z,24.57
2023-04-18T05:29:03.755Z,24.57
2023-04-18T05:30:03.796Z,24.55
2023-04-18T05:31:03.851Z,24.57
2023-04-18T05:32:03.797Z,24.69
2023-04-18T05:33:03.897Z,24.77
2023-04-18T05:34:03.868Z,25.32
2023-04-18T05:35:03.888Z,26.01
2023-04-18T05:36:03.948Z,26.46
2023-04-18T05:37:03.936Z,26.86
2023-04-18T05:38:03.979Z,27.35
2023-04-18T05:39:03.995Z,27.42
2023-04-18T05:40:04.011Z,27.76
2023-04-18T05:41:04.044Z,27.98
2023-04-18T05:42:04.051Z,28.25
2023-04-18T05:43:04.070Z,28.46
2023-04-18T05:44:16.916Z,28.79
2023-04-18T05:45:05.129Z,28.86
2023-04-18T05:46:04.187Z,29.31
2023-04-18T05:47:04.372Z,29.42
2023-04-18T05:48:04.294Z,30.06
2023-04-18T05:49:04.182Z,30.58
2023-04-18T05:50:04.195Z,30.63
2023-04-18T05:51:04.220Z,30.54
2023-04-18T05:52:04.223Z,30.44
2023-04-18T05:53:04.236Z,27.99
2023-04-18T05:54:04.323Z,25.44
2023-04-18T05:55:04.339Z,24.36
2023-04-18T05:56:04.410Z,24.20
2023-04-18T05:57:04.916Z,24.43
2023-04-18T05:58:04.472Z,24.39
2023-04-18T05:59:04.478Z,24.42
2023-04-18T06:00:04.493Z,24.63
2023-04-18T06:01:04.513Z,24.91
2023-04-18T06:02:04.583Z,24.71
2023-04-18T06:03:04.819Z,24.93
2023-04-18T06:04:04.737Z,25.30
2023-04-18T06:05:04.752Z,25.68
2023-04-18T06:06:04.645Z,25.77
2023-04-18T06:07:04.644Z,26.07
2023-04-18T06:08:04.675Z,26.24
2023-04-18T06:09:04.707Z,26.44
2023-04-18T06:10:04.706Z,26.68
2023-04-18T06:11:04.722Z,27.24
2023-04-18T06:12:04.739Z,26.84
2023-04-18T06:13:04.761Z,25.82
2023-04-18T06:14:04.774Z,25.63
2023-04-18T06:15:04.789Z,25.34
2023-04-18T06:16:04.832Z,25.22
2023-04-18T06:17:04.815Z,25.14
2023-04-18T06:18:04.899Z,25.17
2023-04-18T06:19:04.836Z,25.22
2023-04-18T06:20:04.861Z,25.58
2023-04-18T06:21:04.865Z,25.59
2023-04-18T06:22:04.922Z,25.63
2023-04-18T06:23:04.979Z,25.78
2023-04-18T06:24:05.052Z,25.51
2023-04-18T06:25:05.076Z,25.34
2023-04-18T06:26:05.122Z,25.35
2023-04-18T06:27:05.088Z,25.52
2023-04-18T06:28:05.128Z,25.46
2023-04-18T06:29:05.132Z,25.53
2023-04-18T06:30:05.144Z,25.34
2023-04-18T06:31:05.162Z,25.68
2023-04-18T06:32:05.217Z,25.42
2023-04-18T06:33:05.291Z,25.20
2023-04-18T06:34:05.264Z,25.26
2023-04-18T06:35:05.352Z,25.27
2023-04-18T06:36:05.427Z,25.77
2023-04-18T06:37:05.508Z,26.08
2023-04-18T06:38:05.509Z,26.26
2023-04-18T06:39:05.530Z,26.37
2023-04-18T06:40:05.553Z,27.00
2023-04-18T06:41:05.688Z,27.04
2023-04-18T06:42:05.590Z,27.14
2023-04-18T06:43:05.604Z,27.65
2023-04-18T06:44:05.623Z,28.01
2023-04-18T06:45:05.631Z,27.99
2023-04-18T06:46:05.699Z,28.00
2023-04-18T06:47:05.677Z,26.73
2023-04-18T06:48:05.718Z,25.87
2023-04-18T06:49:05.739Z,25.51
2023-04-18T06:50:05.746Z,25.56
2023-04-18T06:51:05.775Z,25.45
2023-04-18T06:52:05.781Z,25.38
2023-04-18T06:53:05.809Z,25.65
2023-04-18T06:54:05.887Z,25.39
2023-04-18T06:55:05.852Z,25.44
2023-04-18T06:56:05.920Z,25.27
2023-04-18T06:57:05.937Z,25.36
2023-04-18T06:58:05.914Z,25.68
2023-04-18T06:59:05.946Z,25.73
2023-04-18T07:00:05.951Z,25.70
2023-04-18T07:01:06.016Z,25.61
2023-04-18T07:02:05.995Z,25.36
2023-04-18T07:03:08.022Z,25.31
2023-04-18T07:04:06.135Z,25.23
2023-04-18T07:05:06.052Z,25.37
2023-04-18T07:06:06.106Z,25.32
2023-04-18T07:07:06.086Z,25.38
2023-04-18T07:08:06.093Z,25.53
2023-04-18T07:09:06.113Z,25.34
2023-04-18T07:10:06.131Z,25.24
2023-04-18T07:11:06.148Z,25.28
2023-04-18T07:12:06.178Z,25.20
2023-04-18T07:13:06.185Z,25.21
2023-04-18T07:14:06.317Z,25.22
2023-04-18T07:15:06.237Z,25.18
2023-04-18T07:16:06.228Z,25.26
2023-04-18T07:17:06.448Z,25.34
2023-04-18T07:18:06.339Z,25.45
2023-04-18T07:19:06.298Z,25.30
2023-04-18T07:20:06.322Z,25.41
2023-04-18T07:21:06.351Z,25.32
2023-04-18T07:22:06.400Z,25.17
2023-04-18T07:23:06.374Z,25.18
2023-04-18T07:24:06.411Z,25.19
2023-04-18T07:25:06.410Z,25.15
2023-04-18T07:26:06.448Z,25.12
2023-04-18T07:27:06.480Z,25.11
2023-04-18T07:28:06.476Z,25.10
2023-04-18T07:29:06.512Z,25.07
2023-04-18T07:30:06.515Z,25.30
2023-04-18T07:31:06.643Z,24.97
2023-04-18T07:32:08.388Z,25.05
2023-04-18T07:33:06.556Z,25.04
2023-04-18T07:34:06.579Z,25.10
2023-04-18T07:35:06.635Z,25.30
2023-04-18T07:36:06.624Z,26.07
2023-04-18T07:37:06.637Z,26.23
2023-04-18T07:38:06.635Z,26.52
2023-04-18T07:39:06.673Z,26.89
2023-04-18T07:40:06.669Z,27.01
2023-04-18T07:41:06.674Z,27.42
2023-04-18T07:42:06.688Z,27.87
2023-04-18T07:43:06.716Z,27.89
2023-04-18T07:44:06.753Z,28.00
2023-04-18T07:45:06.900Z,28.08
2023-04-18T07:46:06.763Z,28.13
2023-04-18T07:47:06.810Z,28.31
2023-04-18T07:48:06.919Z,28.35
2023-04-18T07:49:06.947Z,28.54
2023-04-18T07:50:07.041Z,28.55
2023-04-18T07:51:07.101Z,28.64
2023-04-18T07:52:07.179Z,28.55
2023-04-18T07:53:07.244Z,28.67
2023-04-18T07:54:07.323Z,28.79
2023-04-18T07:55:07.381Z,28.61
2023-04-18T07:56:07.439Z,28.62
2023-04-18T07:57:07.488Z,28.50
2023-04-18T07:58:07.516Z,28.64
2023-04-18T07:59:07.525Z,28.58
2023-04-18T08:00:08.105Z,28.64
2023-04-18T08:01:07.528Z,28.56
2023-04-18T08:02:07.559Z,28.59
2023-04-18T08:03:07.896Z,28.52
2023-04-18T08:04:07.826Z,28.65
2023-04-18T08:05:07.647Z,28.65
2023-04-18T08:06:07.613Z,28.65
2023-04-18T08:07:07.638Z,28.72
2023-04-18T08:08:07.730Z,28.68
2023-04-18T08:09:07.697Z,28.72
2023-04-18T08:10:07.666Z,28.69
2023-04-18T08:11:07.680Z,28.56
2023-04-18T08:12:07.720Z,28.55
2023-04-18T08:13:07.705Z,28.63
2023-04-18T08:14:07.720Z,28.59
2023-04-18T08:15:07.738Z,28.51
2023-04-18T08:16:07.775Z,28.45
2023-04-18T08:17:07.841Z,28.41
2023-04-18T08:18:07.748Z,28.36
2023-04-18T08:19:07.770Z,28.33
2023-04-18T08:20:07.770Z,28.19
2023-04-18T08:21:07.795Z,28.17
2023-04-18T08:22:07.799Z,28.08
2023-04-18T08:23:10.377Z,28.01
2023-04-18T08:24:07.810Z,28.07
2023-04-18T08:25:07.836Z,28.04
2023-04-18T08:26:07.832Z,28.03
2023-04-18T08:27:07.841Z,28.00
2023-04-18T08:28:07.835Z,27.86
2023-04-18T08:29:07.862Z,27.86
2023-04-18T08:30:07.861Z,27.92
2023-04-18T08:31:07.861Z,27.72
2023-04-18T08:32:07.990Z,27.71
2023-04-18T08:33:07.911Z,27.44
2023-04-18T08:34:07.865Z,27.18
2023-04-18T08:35:07.872Z,27.15
2023-04-18T08:36:07.880Z,27.02
2023-04-18T08:37:07.875Z,26.84
2023-04-18T08:38:07.888Z,26.63
2023-04-18T08:39:07.930Z,26.51
2023-04-18T08:40:07.899Z,26.34
2023-04-18T08:41:07.908Z,26.20
2023-04-18T08:42:07.915Z,26.09
2023-04-18T08:43:07.932Z,25.96
2023-04-18T08:44:07.952Z,25.88
2023-04-18T08:45:07.929Z,25.79
2023-04-18T08:46:08.036Z,25.72
2023-04-18T08:47:07.926Z,25.64
2023-04-18T08:48:07.973Z,25.53
2023-04-18T08:49:09.177Z,25.48
2023-04-18T08:50:07.927Z,25.62
2023-04-18T08:51:07.928Z,26.14
2023-04-18T08:52:07.964Z,26.42
2023-04-18T08:53:07.957Z,26.32
2023-04-18T08:54:07.936Z,26.30
2023-04-18T08:55:07.968Z,26.17
2023-04-18T08:56:07.980Z,26.12
2023-04-18T08:57:07.978Z,26.12
2023-04-18T08:58:08.021Z,26.09
2023-04-18T08:59:07.972Z,26.05
2023-04-18T09:00:07.979Z,26.04
2023-04-18T09:01:08.030Z,26.04
2023-04-18T09:02:08.059Z,26.04
2023-04-18T09:03:08.196Z,26.00
2023-04-18T09:04:08.060Z,26.00
2023-04-18T09:05:08.142Z,26.03
2023-04-18T09:06:08.019Z,26.01
2023-04-18T09:07:08.022Z,26.04
2023-04-18T09:08:08.027Z,25.95
2023-04-18T09:09:08.040Z,25.94
2023-04-18T09:10:08.033Z,25.90
2023-04-18T09:11:08.030Z,25.86
2023-04-18T09:12:08.052Z,25.80
2023-04-18T09:13:08.071Z,25.83
2023-04-18T09:14:08.075Z,25.80
2023-04-18T09:15:08.075Z,25.78
2023-04-18T09:16:08.091Z,25.81
2023-04-18T09:17:08.128Z,25.81
2023-04-18T09:18:08.130Z,25.77
2023-04-18T09:19:08.127Z,25.77
2023-04-18T09:20:08.151Z,25.82
2023-04-18T09:21:08.182Z,25.75
2023-04-18T09:22:08.241Z,25.79
2023-04-18T09:23:08.249Z,25.80
2023-04-18T09:24:08.234Z,25.82
2023-04-18T09:25:08.308Z,25.80
2023-04-18T09:26:08.319Z,25.77
2023-04-18T09:27:08.365Z,25.83
2023-04-18T09:28:08.435Z,25.82
2023-04-18T09:29:08.460Z,25.86
2023-04-18T09:30:08.499Z,25.87
2023-04-18T09:31:08.648Z,25.87
2023-04-18T09:32:08.582Z,25.85
2023-04-18T09:33:08.616Z,25.89
2023-04-18T09:34:08.642Z,25.91
2023-04-18T09:35:08.633Z,25.90
2023-04-18T09:36:08.667Z,25.92
2023-04-18T09:37:08.815Z,25.99
2023-04-18T09:38:08.765Z,25.98
2023-04-18T09:39:08.731Z,25.95
2023-04-18T09:40:08.764Z,25.97
2023-04-18T09:41:08.865Z,26.17
2023-04-18T09:42:08.839Z,26.50
2023-04-18T09:43:08.896Z,26.48
2023-04-18T09:44:12.389Z,26.87
2023-04-18T09:45:09.952Z,27.41
2023-04-18T09:46:08.999Z,28.25
2023-04-18T09:47:08.910Z,28.66
2023-04-18T09:48:08.957Z,28.63
2023-04-18T09:49:10.930Z,28.65
2023-04-18T09:50:08.942Z,28.92
2023-04-18T09:51:08.914Z,28.97
2023-04-18T09:52:08.926Z,28.96
2023-04-18T09:53:09.132Z,29.09
2023-04-18T09:54:08.927Z,29.25
2023-04-18T09:55:08.933Z,29.27
2023-04-18T09:56:08.927Z,29.25
2023-04-18T09:57:08.942Z,29.41
2023-04-18T09:58:08.941Z,29.39
2023-04-18T09:59:08.983Z,29.43
2023-04-18T10:00:08.947Z,29.53
2023-04-18T10:01:08.986Z,29.66
2023-04-18T10:02:09.073Z,29.71
2023-04-18T10:03:09.040Z,29.63
2023-04-18T10:04:08.997Z,29.77
2023-04-18T10:05:08.996Z,29.83
2023-04-18T10:06:08.986Z,29.76
2023-04-18T10:07:09.048Z,29.77
2023-04-18T10:08:09.094Z,29.76
2023-04-18T10:09:09.140Z,29.59
2023-04-18T10:10:09.185Z,29.47
2023-04-18T10:11:09.257Z,29.28
2023-04-18T10:12:09.290Z,29.02
2023-04-18T10:13:09.342Z,28.92
2023-04-18T10:14:09.426Z,28.72
2023-04-18T10:15:09.447Z,28.64
2023-04-18T10:16:09.472Z,28.40
2023-04-18T10:17:09.470Z,28.37
2023-04-18T10:18:09.484Z,28.30
2023-04-18T10:19:09.474Z,28.31
2023-04-18T10:20:09.478Z,28.08
2023-04-18T10:21:09.549Z,27.92
2023-04-18T10:22:09.489Z,27.99
2023-04-18T10:23:09.482Z,27.94
2023-04-18T10:24:09.481Z,27.81
2023-04-18T10:25:09.493Z,27.69
2023-04-18T10:26:09.487Z,27.58
2023-04-18T10:27:09.522Z,27.57
2023-04-18T10:28:09.575Z,27.56
2023-04-18T10:29:09.608Z,27.58
2023-04-18T10:30:09.671Z,27.52
2023-04-18T10:31:09.750Z,27.60
2023-04-18T10:32:09.770Z,27.55
2023-04-18T10:33:18.389Z,27.46
2023-04-18T10:34:10.853Z,27.50
2023-04-18T10:35:09.844Z,27.61
2023-04-18T10:36:09.896Z,27.56
2023-04-18T10:37:09.869Z,27.71
2023-04-18T10:38:09.919Z,27.18
2023-04-18T10:39:09.873Z,27.18
2023-04-18T10:40:09.875Z,27.15
2023-04-18T10:41:09.950Z,27.12
2023-04-18T10:42:09.891Z,27.36
2023-04-18T10:43:09.892Z,27.68
2023-04-18T10:44:09.880Z,27.72
2023-04-18T10:45:09.897Z,27.84
2023-04-18T10:46:20.210Z,27.80
2023-04-18T10:47:10.955Z,27.81
2023-04-18T10:48:09.966Z,27.48
2023-04-18T10:49:09.905Z,27.41
2023-04-18T10:50:09.951Z,27.32
2023-04-18T10:51:09.919Z,26.83
2023-04-18T10:52:11.692Z,26.99
2023-04-18T10:53:09.931Z,26.90
2023-04-18T10:54:09.931Z,27.00
2023-04-18T10:55:09.932Z,27.14
2023-04-18T10:56:09.948Z,27.08
2023-04-18T10:57:09.938Z,27.13
2023-04-18T10:58:09.936Z,27.16
2023-04-18T10:59:09.955Z,27.15
2023-04-18T11:00:10.034Z,27.12
2023-04-18T11:01:10.009Z,27.13
2023-04-18T11:02:10.024Z,27.19
2023-04-18T11:03:10.217Z,27.34
2023-04-18T11:04:10.149Z,27.14
2023-04-18T11:05:09.957Z,27.22
2023-04-18T11:06:09.995Z,27.32
2023-04-18T11:07:09.947Z,27.20
2023-04-18T11:08:09.938Z,27.30
2023-04-18T11:09:09.937Z,27.19
2023-04-18T11:10:09.935Z,27.25
2023-04-18T11:11:09.926Z,27.21
2023-04-18T11:12:09.950Z,27.17
2023-04-18T11:13:10.080Z,27.24
2023-04-18T11:14:09.946Z,27.23
2023-04-18T11:15:09.947Z,27.06
2023-04-18T11:16:09.948Z,27.03
2023-04-18T11:17:09.928Z,27.03
2023-04-18T11:18:09.973Z,26.56
2023-04-18T11:19:09.925Z,26.75
2023-04-18T11:20:09.957Z,26.51
2023-04-18T11:21:09.948Z,25.93
2023-04-18T11:22:10.051Z,25.98
2023-04-18T11:23:09.952Z,25.95
2023-04-18T11:24:09.925Z,26.06
2023-04-18T11:25:09.964Z,26.06
2023-04-18T11:26:09.975Z,26.12
2023-04-18T11:27:09.960Z,26.23
2023-04-18T11:28:09.999Z,26.35
2023-04-18T11:29:10.090Z,26.22
2023-04-18T11:30:10.006Z,26.12
2023-04-18T11:31:10.000Z,26.03
2023-04-18T11:32:10.038Z,25.92
2023-04-18T11:33:10.021Z,25.84
2023-04-18T11:34:10.002Z,25.77
2023-04-18T11:35:10.009Z,25.74
2023-04-18T11:36:10.026Z,25.70
2023-04-18T11:37:10.022Z,25.49
2023-04-18T11:38:10.029Z,25.50
2023-04-18T11:39:10.009Z,25.46
2023-04-18T11:40:10.003Z,25.28
2023-04-18T11:41:10.017Z,25.69
2023-04-18T11:42:10.020Z,25.77
2023-04-18T11:43:10.022Z,25.75
2023-04-18T11:44:10.031Z,25.63
2023-04-18T11:45:10.025Z,25.62
2023-04-18T11:46:10.076Z,25.49
2023-04-18T11:47:10.047Z,25.33
2023-04-18T11:48:10.084Z,25.41
2023-04-18T11:49:10.048Z,25.28
2023-04-18T11:50:10.056Z,25.20
2023-04-18T11:51:10.056Z,25.21
2023-04-18T11:52:10.080Z,25.12
2023-04-18T11:53:10.069Z,25.09
2023-04-18T11:54:10.060Z,25.22
2023-04-18T11:55:10.063Z,25.08
2023-04-18T11:56:10.068Z,25.07
2023-04-18T11:57:10.065Z,25.01
2023-04-18T11:58:10.073Z,24.98
2023-04-18T11:59:10.070Z,24.83
2023-04-18T12:00:10.100Z,24.78
2023-04-18T12:01:10.136Z,24.72
2023-04-18T12:03:13.327Z,24.71
2023-04-18T12:04:10.380Z,24.62
2023-04-18T12:05:10.447Z,24.51
2023-04-18T12:06:10.294Z,24.45
2023-04-18T12:07:10.158Z,24.44
2023-04-18T12:08:10.164Z,24.52
2023-04-18T12:09:10.158Z,24.50
2023-04-18T12:10:10.157Z,24.40
2023-04-18T12:11:10.152Z,24.48
2023-04-18T12:12:10.152Z,24.47
2023-04-18T12:13:10.148Z,24.42
2023-04-18T12:14:10.141Z,24.32
2023-04-18T12:15:10.136Z,24.19
2023-04-18T12:16:10.177Z,24.23
2023-04-18T12:17:10.167Z,24.14
2023-04-18T12:18:10.154Z,24.18
2023-04-18T12:19:10.132Z,23.93
2023-04-18T12:20:10.208Z,24.04
2023-04-18T12:21:10.120Z,23.92
2023-04-18T12:22:10.183Z,24.10
2023-04-18T12:23:10.112Z,23.85
2023-04-18T12:24:10.110Z,23.92
2023-04-18T12:25:10.124Z,23.86
2023-04-18T12:26:10.108Z,23.80
2023-04-18T12:27:10.120Z,23.85
2023-04-18T12:28:10.097Z,23.88
2023-04-18T12:29:10.127Z,23.89
2023-04-18T12:30:10.129Z,23.91
2023-04-18T12:31:10.118Z,23.95
2023-04-18T12:32:10.111Z,23.96
2023-04-18T12:33:10.101Z,23.97
2023-04-18T12:34:10.106Z,24.01
2023-04-18T12:35:10.099Z,24.02
2023-04-18T12:36:10.128Z,24.03
2023-04-18T12:37:10.111Z,24.05
2023-04-18T12:38:10.098Z,24.05
2023-04-18T12:39:10.104Z,24.05
2023-04-18T12:40:10.101Z,24.06
2023-04-18T12:41:10.115Z,24.04
2023-04-18T12:42:10.128Z,24.04
2023-04-18T12:43:10.118Z,24.07
2023-04-18T12:44:10.155Z,24.08
2023-04-18T12:45:10.182Z,24.09
2023-04-18T12:46:10.221Z,24.08
2023-04-18T12:47:10.245Z,24.08
2023-04-18T12:48:10.182Z,24.07
2023-04-18T12:49:10.187Z,24.10
2023-04-18T12:50:11.458Z,24.09
2023-04-18T12:51:10.165Z,24.08
2023-04-18T12:52:10.282Z,24.07
2023-04-18T12:53:10.159Z,24.09
2023-04-18T12:54:10.166Z,24.07